Time;durP1;ratioP1;P1;durP2;ratioP2;P2;SDS_P1;SDS_P2;PMS_P1;PMS_P2;Temp;Humidity;BMP_temperature;BMP_pressure;BME280_temperature;BME280_humidity;BME280_pressure;Samples;Min_cycle;Max_cycle;Signal;HPM_P1;HPM_P2
2022/07/15 00:01:33;;;;;;;17.25;4.05;;;;;;;16.89;64.79;101707.13;5094120;28;20055;-57
2022/07/15 00:04:01;;;;;;;14.48;3.70;;;;;;;16.82;65.08;101713.31;5094009;28;20040;-57
2022/07/15 00:06:28;;;;;;;15.30;3.78;;;;;;;16.80;65.29;101718.84;5094325;28;20444;-57
2022/07/15 00:08:55;;;;;;;14.63;3.83;;;;;;;16.78;65.44;101712.00;5093916;28;20135;-56
2022/07/15 00:11:21;;;;;;;13.07;4.10;;;;;;;16.79;64.92;101713.66;5094386;28;20043;-57
2022/07/15 00:13:48;;;;;;;22.52;4.00;;;;;;;16.84;65.17;101712.16;5094592;28;20078;-57
2022/07/15 00:16:15;;;;;;;15.07;3.97;;;;;;;16.86;65.34;101712.84;5094697;28;20036;-55
2022/07/15 00:18:41;;;;;;;11.70;4.30;;;;;;;16.87;65.16;101708.31;5094249;28;20048;-55
2022/07/15 00:21:08;;;;;;;16.25;4.30;;;;;;;16.78;65.39;101709.31;5094621;28;20064;-55
2022/07/15 00:23:35;;;;;;;16.00;4.30;;;;;;;16.81;65.51;101707.13;5094090;28;20048;-55
2022/07/15 00:26:02;;;;;;;19.40;4.22;;;;;;;16.80;65.33;101708.13;5094398;28;20126;-55
2022/07/15 00:28:28;;;;;;;11.05;3.65;;;;;;;16.77;65.83;101713.84;5094277;28;20101;-56
2022/07/15 00:30:55;;;;;;;17.40;4.22;;;;;;;16.86;65.95;101707.50;5093676;28;20044;-55
2022/07/15 00:33:22;;;;;;;17.58;4.18;;;;;;;16.84;65.46;101708.66;5093926;28;20413;-57
2022/07/15 00:35:49;;;;;;;16.45;3.80;;;;;;;16.75;65.71;101718.53;5093975;28;20428;-55
2022/07/15 00:38:16;;;;;;;17.95;3.90;;;;;;;16.76;66.02;101709.50;5094301;28;20493;-55
2022/07/15 00:40:45;;;;;;;15.57;4.70;;;;;;;16.71;66.23;101709.16;5094007;28;20047;-55
2022/07/15 00:43:13;;;;;;;21.58;3.80;;;;;;;16.72;66.17;101712.66;5094153;28;20051;-57
2022/07/15 00:45:40;;;;;;;15.77;4.22;;;;;;;16.75;66.40;101704.28;5093905;28;20040;-55
2022/07/15 00:48:08;;;;;;;18.10;4.15;;;;;;;16.68;66.41;101710.34;5094071;28;20058;-55
2022/07/15 00:50:35;;;;;;;17.50;3.85;;;;;;;16.65;66.43;101704.50;5094075;28;20122;-55
2022/07/15 00:53:07;;;;;;;17.02;3.75;;;;;;;16.69;66.80;101700.47;5094081;28;20199;-57
2022/07/15 00:55:40;;;;;;;17.17;4.15;;;;;;;16.48;67.30;101709.88;5094148;28;20478;-56
2022/07/15 00:58:10;;;;;;;17.83;3.83;;;;;;;16.53;67.05;101706.69;5094103;28;20058;-56
2022/07/15 01:00:37;;;;;;;15.50;4.03;;;;;;;16.43;67.37;101709.53;5093171;28;20127;-56
2022/07/15 01:03:05;;;;;;;20.05;4.20;;;;;;;16.45;67.54;101712.06;5093230;28;20054;-57
2022/07/15 01:05:33;;;;;;;18.40;4.25;;;;;;;16.35;67.43;101711.38;5093358;28;20039;-56
2022/07/15 01:07:59;;;;;;;23.33;5.35;;;;;;;16.21;68.13;101711.06;5093374;28;20440;-56
2022/07/15 01:10:26;;;;;;;19.10;4.43;;;;;;;16.23;68.11;101717.09;5093725;28;20071;-56
2022/07/15 01:12:53;;;;;;;17.08;5.95;;;;;;;16.26;67.81;101713.22;5093791;28;20493;-56
2022/07/15 01:15:26;;;;;;;15.93;4.28;;;;;;;16.11;68.13;101718.41;5093509;28;20130;-56
2022/07/15 01:17:53;;;;;;;19.23;4.15;;;;;;;16.17;68.45;101715.09;5093623;28;20067;-56
2022/07/15 01:20:20;;;;;;;16.70;4.97;;;;;;;16.21;68.12;101719.09;5093423;28;20044;-56
2022/07/15 01:22:54;;;;;;;16.55;4.25;;;;;;;16.16;67.84;101720.59;5093268;28;20101;-56
2022/07/15 01:25:23;;;;;;;19.55;4.53;;;;;;;16.25;67.83;101719.59;5093369;28;20051;-56
2022/07/15 01:27:50;;;;;;;14.35;4.32;;;;;;;16.14;68.30;101717.28;5093252;28;20042;-56
2022/07/15 01:30:22;;;;;;;17.52;4.38;;;;;;;16.29;67.84;101715.56;5093398;28;20043;-56
2022/07/15 01:32:51;;;;;;;12.00;4.22;;;;;;;16.36;67.83;101721.94;5093683;28;20050;-56
2022/07/15 01:35:18;;;;;;;18.05;3.75;;;;;;;16.31;68.06;101719.75;5092659;28;20139;-56
2022/07/15 01:37:47;;;;;;;13.38;3.45;;;;;;;16.31;67.89;101725.09;5093465;28;20048;-56
2022/07/15 01:40:15;;;;;;;20.33;4.22;;;;;;;16.43;67.80;101722.94;5093505;28;20044;-56
2022/07/15 01:42:43;;;;;;;15.15;3.90;;;;;;;16.42;67.85;101715.06;5093338;28;20087;-56
2022/07/15 01:45:12;;;;;;;19.08;4.30;;;;;;;16.55;67.22;101727.94;5092977;28;20039;-56
2022/07/15 01:47:44;;;;;;;19.08;4.20;;;;;;;16.44;67.20;101723.75;5093228;28;20123;-56
2022/07/15 01:50:16;;;;;;;14.43;3.83;;;;;;;16.50;67.49;101725.78;5093352;28;20079;-56
2022/07/15 01:52:53;;;;;;;16.67;4.13;;;;;;;16.50;67.07;101723.94;5093348;28;20481;-56
2022/07/15 01:55:20;;;;;;;16.05;4.40;;;;;;;16.40;67.02;101728.63;5090688;28;20048;-56
2022/07/15 01:57:47;;;;;;;19.45;3.92;;;;;;;16.44;67.26;101732.63;5088762;28;20040;-56
2022/07/15 02:00:16;;;;;;;16.75;4.18;;;;;;;16.43;67.23;101730.13;5093076;28;20044;-56
2022/07/15 02:02:53;;;;;;;20.98;4.38;;;;;;;16.47;67.08;101734.16;5110385;27;20373;-55
2022/07/15 02:05:21;;;;;;;17.52;4.00;;;;;;;16.41;67.06;101735.66;5106173;28;20461;-55
2022/07/15 02:07:49;;;;;;;22.95;4.55;;;;;;;16.39;67.21;101735.00;5110764;28;20036;-55
2022/07/15 02:10:18;;;;;;;19.38;4.38;;;;;;;16.45;66.75;101734.31;5111138;28;20048;-55
2022/07/15 02:12:46;;;;;;;15.60;4.50;;;;;;;16.24;67.09;101731.31;5111037;28;20497;-55
2022/07/15 02:15:17;;;;;;;20.52;4.50;;;;;;;16.27;67.02;101726.44;5111372;28;20493;-55
2022/07/15 02:17:50;;;;;;;17.85;4.30;;;;;;;16.26;67.25;101726.63;5110631;28;20383;-56
2022/07/15 02:20:17;;;;;;;18.13;4.03;;;;;;;16.19;67.26;101722.94;5111254;28;20416;-57
2022/07/15 02:22:45;;;;;;;14.18;3.85;;;;;;;16.22;67.55;101730.63;5109816;28;20044;-57
2022/07/15 02:25:13;;;;;;;15.63;4.10;;;;;;;16.28;67.57;101727.28;5110820;28;20035;-57
2022/07/15 02:27:43;;;;;;;24.92;4.53;;;;;;;16.15;67.34;101733.13;5110296;28;20127;-57
2022/07/15 02:30:11;;;;;;;18.42;3.95;;;;;;;16.16;67.10;101731.31;5110948;28;20050;-56
2022/07/15 02:32:40;;;;;;;18.05;4.18;;;;;;;16.02;67.61;101722.09;5110809;28;20048;-56
2022/07/15 02:35:08;;;;;;;18.05;4.45;;;;;;;15.99;67.71;101725.09;5110217;28;20044;-56
2022/07/15 02:37:34;;;;;;;17.33;3.80;;;;;;;15.99;67.51;101725.09;5110892;28;20139;-57
2022/07/15 02:40:01;;;;;;;16.73;4.18;;;;;;;15.93;67.73;101724.78;5110374;28;20052;-56
2022/07/15 02:42:30;;;;;;;24.35;4.63;;;;;;;15.87;67.92;101724.59;5110685;28;20051;-56
2022/07/15 02:44:57;;;;;;;13.95;4.18;;;;;;;15.83;68.35;101724.09;5110210;28;20382;-56
2022/07/15 02:47:24;;;;;;;16.10;3.88;;;;;;;15.72;68.83;101721.69;5110175;28;20402;-57
2022/07/15 02:49:52;;;;;;;20.58;4.22;;;;;;;15.88;68.54;101728.91;5110251;28;20040;-56
2022/07/15 02:52:20;;;;;;;14.65;3.95;;;;;;;15.98;68.65;101728.78;5110557;28;20538;-54
2022/07/15 02:54:49;;;;;;;20.13;4.07;;;;;;;15.89;68.92;101734.13;5110316;28;20064;-55
2022/07/15 02:57:19;;;;;;;16.52;3.97;;;;;;;15.90;69.33;101733.13;5110267;28;20433;-56
2022/07/15 02:59:46;;;;;;;16.73;4.68;;;;;;;15.88;69.25;101739.63;5109973;28;20056;-57
2022/07/15 03:02:13;;;;;;;18.52;4.30;;;;;;;15.82;69.57;101740.28;5108594;28;20062;-56
2022/07/15 03:04:40;;;;;;;16.45;4.13;;;;;;;15.77;69.86;101740.81;5108268;28;20066;-56
2022/07/15 03:07:06;;;;;;;22.88;4.65;;;;;;;15.64;69.91;101743.06;5110214;28;20052;-55
2022/07/15 03:09:33;;;;;;;20.17;4.30;;;;;;;15.80;69.62;101756.50;5108800;28;20044;-54
2022/07/15 03:12:00;;;;;;;21.35;4.10;;;;;;;15.61;70.06;101754.06;5108718;28;20478;-56
2022/07/15 03:14:27;;;;;;;17.27;4.10;;;;;;;15.61;70.09;101762.97;5095944;28;20059;-55
2022/07/15 03:16:53;;;;;;;17.92;4.60;;;;;;;15.63;69.47;101758.28;5095124;28;20122;-55
2022/07/15 03:19:20;;;;;;;18.95;4.95;;;;;;;15.63;69.66;101754.78;5096579;28;20135;-55
2022/07/15 03:21:48;;;;;;;18.55;4.20;;;;;;;15.43;70.29;101763.06;5096024;28;20043;-56
2022/07/15 03:24:17;;;;;;;18.10;4.00;;;;;;;15.49;70.43;101773.09;5096358;28;20079;-56
2022/07/15 03:26:43;;;;;;;17.88;4.22;;;;;;;15.47;70.27;101772.41;5095803;28;20048;-56
2022/07/15 03:29:13;;;;;;;18.90;4.03;;;;;;;15.48;69.98;101770.56;5096219;28;20040;-56
2022/07/15 03:31:42;;;;;;;15.73;3.85;;;;;;;15.42;70.26;101771.22;5092113;28;20044;-56
2022/07/15 03:34:10;;;;;;;20.10;4.18;;;;;;;15.43;70.44;101772.91;5095132;28;20051;-57
2022/07/15 03:36:38;;;;;;;15.73;4.40;;;;;;;15.35;70.77;101779.91;5095935;28;20048;-57
2022/07/15 03:39:06;;;;;;;17.70;4.72;;;;;;;15.28;70.92;101778.88;5095365;28;20052;-56
2022/07/15 03:41:34;;;;;;;15.23;4.25;;;;;;;15.21;71.50;101788.53;5095839;28;20040;-58
2022/07/15 03:44:02;;;;;;;13.40;3.92;;;;;;;15.22;71.30;101776.81;5095943;28;20040;-57
2022/07/15 03:46:29;;;;;;;16.30;4.53;;;;;;;15.31;71.15;101786.56;5094477;28;20056;-57
2022/07/15 03:49:01;;;;;;;19.05;4.88;;;;;;;15.23;71.53;101796.38;5095739;28;20493;-57
2022/07/15 03:51:32;;;;;;;19.67;4.15;;;;;;;15.18;71.71;101794.19;5095155;28;20060;-57
2022/07/15 03:54:02;;;;;;;23.17;4.80;;;;;;;15.10;72.24;101802.16;5095595;28;20390;-58
2022/07/15 03:56:30;;;;;;;19.95;4.90;;;;;;;15.09;72.12;101808.50;5091456;28;20037;-57
2022/07/15 03:58:57;;;;;;;16.27;4.60;;;;;;;14.92;72.60;101800.38;5093124;28;20036;-56
2022/07/15 04:01:24;;;;;;;15.73;4.72;;;;;;;15.08;72.71;101804.13;5094590;28;20440;-56
2022/07/15 04:03:52;;;;;;;20.60;4.70;;;;;;;15.10;72.22;101805.66;5094429;28;20577;-57
2022/07/15 04:06:20;;;;;;;16.77;4.15;;;;;;;15.01;72.37;101798.59;5093905;28;20048;-56
2022/07/15 04:08:47;;;;;;;19.75;5.10;;;;;;;14.97;72.78;101805.22;5094253;28;20052;-57
2022/07/15 04:11:13;;;;;;;19.10;4.70;;;;;;;14.88;72.76;101812.38;5095441;28;20040;-57
2022/07/15 04:13:41;;;;;;;21.42;4.55;;;;;;;14.77;73.34;101807.25;5095191;28;20044;-57
2022/07/15 04:16:11;;;;;;;21.98;4.85;;;;;;;14.76;73.40;101813.63;5093555;28;20405;-57
2022/07/15 04:18:37;;;;;;;20.75;5.30;;;;;;;14.78;73.38;101811.63;5095229;28;20052;-57
2022/07/15 04:21:05;;;;;;;14.45;5.07;;;;;;;14.78;73.83;101812.44;5094046;28;20052;-55
2022/07/15 04:23:31;;;;;;;23.27;5.70;;;;;;;14.80;73.29;101822.16;5095098;28;20378;-57
2022/07/15 04:25:58;;;;;;;20.60;5.57;;;;;;;14.96;73.13;101819.59;5092608;28;20050;-57
2022/07/15 04:28:25;;;;;;;16.05;4.47;;;;;;;14.95;72.82;101823.25;5094942;28;20052;-56
2022/07/15 04:30:53;;;;;;;16.60;4.57;;;;;;;14.91;72.95;101825.41;5094413;28;20072;-56
2022/07/15 04:33:23;;;;;;;21.58;5.00;;;;;;;14.98;72.40;101825.63;5094714;28;20130;-56
2022/07/15 04:35:49;;;;;;;17.20;5.00;;;;;;;14.86;73.02;101827.72;5095054;28;20052;-56
2022/07/15 04:38:17;;;;;;;18.30;4.38;;;;;;;14.97;73.01;101834.63;5094787;28;20074;-55
2022/07/15 04:40:44;;;;;;;14.98;4.50;;;;;;;15.10;72.73;101831.56;5094494;28;20101;-56
2022/07/15 04:43:11;;;;;;;12.88;4.47;;;;;;;15.09;72.81;101837.88;5093584;28;20091;-57
2022/07/15 04:45:41;;;;;;;20.95;5.00;;;;;;;15.13;72.46;101839.25;5093365;28;20044;-56
2022/07/15 04:50:56;;;;;;;23.17;4.72;;;;;;;15.12;72.13;101845.59;5093964;28;20410;-56
2022/07/15 04:53:25;;;;;;;15.90;4.55;;;;;;;15.09;72.12;101840.56;5094413;28;20044;-57
2022/07/15 04:55:54;;;;;;;16.98;4.72;;;;;;;15.12;71.92;101843.75;5094372;28;20481;-57
2022/07/15 04:58:21;;;;;;;18.08;4.57;;;;;;;15.04;72.37;101854.38;5094673;28;20073;-57
2022/07/15 05:00:49;;;;;;;20.52;5.60;;;;;;;15.07;72.43;101847.91;5094056;28;20127;-57
2022/07/15 05:03:16;;;;;;;15.45;4.85;;;;;;;14.95;72.65;101853.50;5094143;28;20122;-58
2022/07/15 05:05:43;;;;;;;18.45;4.93;;;;;;;14.93;73.01;101847.44;5089355;28;20127;-57
2022/07/15 05:08:15;;;;;;;24.40;5.00;;;;;;;15.03;72.04;101855.38;5093808;28;20078;-57
2022/07/15 05:10:47;;;;;;;15.30;4.63;;;;;;;15.20;71.70;101853.66;5093908;28;20052;-57
2022/07/15 05:13:14;;;;;;;17.30;4.85;;;;;;;15.17;71.70;101848.63;5094085;28;20040;-57
2022/07/15 05:15:41;;;;;;;21.40;4.85;;;;;;;15.26;71.34;101853.03;5094075;28;20044;-58
2022/07/15 05:18:13;;;;;;;12.73;4.43;;;;;;;15.26;71.39;101853.03;5094025;28;20048;-57
2022/07/15 05:20:40;;;;;;;19.40;4.55;;;;;;;15.32;70.78;101847.06;5094055;28;20118;-57
2022/07/15 05:23:07;;;;;;;18.88;5.40;;;;;;;15.44;70.94;101850.28;5093439;28;20036;-57
2022/07/15 05:25:38;;;;;;;22.20;5.30;;;;;;;15.45;70.60;101861.84;5093869;28;20048;-57
2022/07/15 05:28:07;;;;;;;22.30;4.97;;;;;;;15.42;70.57;101862.13;5093724;28;20501;-57
2022/07/15 05:30:36;;;;;;;21.58;4.88;;;;;;;15.42;70.79;101856.78;5093366;28;20040;-57
2022/07/15 05:33:05;;;;;;;27.10;5.60;;;;;;;15.66;70.14;101853.38;5093603;28;20040;-57
2022/07/15 05:35:32;;;;;;;15.75;4.60;;;;;;;15.59;70.41;101849.69;5093485;28;20044;-58
2022/07/15 05:37:58;;;;;;;25.27;5.13;;;;;;;15.65;70.10;101843.72;5093608;28;20382;-57
2022/07/15 05:40:29;;;;;;;19.17;5.13;;;;;;;15.65;70.04;101849.88;5092403;28;20482;-57
2022/07/15 05:42:56;;;;;;;18.17;6.13;;;;;;;15.60;69.88;101846.84;5093559;28;20054;-57
2022/07/15 05:45:24;;;;;;;23.80;6.00;;;;;;;15.63;70.09;101854.56;5093593;28;20055;-57
2022/07/15 05:47:59;;;;;;;30.40;5.40;;;;;;;15.61;70.17;101864.59;5093497;28;20048;-57
2022/07/15 05:50:28;;;;;;;26.55;4.93;;;;;;;15.82;69.93;101849.97;5093257;28;20473;-57
2022/07/15 05:52:58;;;;;;;24.20;5.72;;;;;;;15.91;69.31;101852.50;5093496;28;20072;-57
2022/07/15 05:55:25;;;;;;;19.17;4.63;;;;;;;15.87;69.12;101845.81;5093353;28;20044;-57
2022/07/15 05:57:56;;;;;;;22.83;5.03;;;;;;;15.89;69.51;101854.53;5088973;28;20048;-57
2022/07/15 06:00:27;;;;;;;18.42;4.70;;;;;;;15.79;69.43;101848.47;5073144;28;20051;-55
2022/07/15 06:02:53;;;;;;;19.25;4.93;;;;;;;15.82;68.83;101852.66;5072599;28;20499;-58
2022/07/15 06:05:24;;;;;;;19.67;5.00;;;;;;;15.76;69.01;101848.78;5072470;28;20055;-57
2022/07/15 06:07:56;;;;;;;16.10;4.50;;;;;;;15.73;69.06;101849.06;5073197;28;20040;-57
2022/07/15 06:10:28;;;;;;;17.88;4.63;;;;;;;15.76;69.45;101851.47;5073011;28;20063;-58
2022/07/15 06:12:55;;;;;;;19.70;4.72;;;;;;;15.90;69.19;101850.84;5072035;28;20052;-58
2022/07/15 06:15:23;;;;;;;21.80;4.90;;;;;;;15.92;68.82;101858.72;5072967;28;20048;-58
2022/07/15 06:17:51;;;;;;;18.77;5.13;;;;;;;15.80;68.54;101857.34;5073190;28;20040;-57
2022/07/15 06:20:21;;;;;;;13.55;4.30;;;;;;;15.97;67.98;101853.72;5073099;28;20128;-57
2022/07/15 06:22:48;;;;;;;27.65;5.32;;;;;;;15.95;67.67;101847.69;5073017;28;20519;-58
2022/07/15 06:25:16;;;;;;;20.58;5.57;;;;;;;16.02;67.31;101848.72;5071896;28;20102;-57
2022/07/15 06:27:43;;;;;;;22.77;5.88;;;;;;;15.84;66.42;101856.84;5072572;28;20466;-57
2022/07/15 06:30:10;;;;;;;25.95;6.10;;;;;;;15.86;66.48;101849.50;5085321;28;20043;-49
2022/07/15 06:32:37;;;;;;;35.15;7.18;;;;;;;15.92;66.09;101853.38;5095067;28;20040;-48
2022/07/15 06:35:05;;;;;;;25.92;6.00;;;;;;;15.90;67.90;101850.84;5102050;28;20051;-51
2022/07/15 06:37:32;;;;;;;32.80;6.63;;;;;;;15.86;67.93;101854.88;5098205;28;20097;-50
2022/07/15 06:39:59;;;;;;;22.23;6.80;;;;;;;15.81;67.31;101859.00;5108684;28;20047;-49
2022/07/15 06:42:26;;;;;;;27.27;7.28;;;;;;;15.94;70.59;101848.69;5096672;28;20077;-48
2022/07/15 06:45:03;;;;;;;22.77;7.18;;;;;;;15.97;71.17;101850.19;5101772;28;20079;-48
2022/07/15 06:47:31;;;;;;;27.25;7.13;;;;;;;15.85;69.70;101852.34;5106155;28;20123;-51
2022/07/15 06:50:00;;;;;;;26.23;7.55;;;;;;;15.92;70.50;101858.72;5099121;27;20116;-48
2022/07/15 06:52:27;;;;;;;29.23;7.38;;;;;;;15.96;69.44;101851.22;5111205;28;20032;-50
2022/07/15 06:54:55;;;;;;;29.20;7.10;;;;;;;15.91;69.14;101854.38;5106728;28;20109;-48
2022/07/15 06:57:22;;;;;;;33.25;8.32;;;;;;;16.11;71.26;101855.75;5107196;28;20398;-47
2022/07/15 06:59:52;;;;;;;27.83;6.88;;;;;;;16.15;69.39;101848.22;5099032;28;20055;-47
2022/07/15 07:02:18;;;;;;;22.50;6.05;;;;;;;16.11;69.21;101849.56;5111342;28;20557;-48
2022/07/15 07:04:45;;;;;;;24.83;7.05;;;;;;;15.98;65.96;101841.19;5102376;28;20059;-49
2022/07/15 07:07:13;;;;;;;24.77;7.15;;;;;;;15.93;68.69;101850.53;5104137;28;20059;-48
2022/07/15 07:09:40;;;;;;;28.13;7.05;;;;;;;16.05;67.23;101852.91;5100492;28;20045;-50
2022/07/15 07:12:07;;;;;;;21.38;7.05;;;;;;;16.09;68.55;101854.25;5093625;28;20481;-49
2022/07/15 07:14:33;;;;;;;23.50;6.88;;;;;;;16.00;66.68;101858.75;5105840;28;20043;-50
2022/07/15 07:17:00;;;;;;;21.67;7.38;;;;;;;16.05;66.88;101858.25;5108656;28;20538;-50
2022/07/15 07:19:27;;;;;;;19.65;6.47;;;;;;;16.03;66.95;101868.31;5101609;28;20044;-50
2022/07/15 07:21:53;;;;;;;27.05;6.93;;;;;;;16.06;65.68;101859.91;5111503;28;20040;-48
2022/07/15 07:24:20;;;;;;;29.33;7.20;;;;;;;16.33;66.21;101863.34;5105936;28;20078;-49
2022/07/15 07:26:47;;;;;;;19.83;6.40;;;;;;;16.31;64.35;101864.31;5094917;28;20050;-48
2022/07/15 07:29:16;;;;;;;21.45;6.35;;;;;;;16.41;65.83;101866.88;5105382;28;20047;-46
2022/07/15 07:31:43;;;;;;;14.50;3.67;;;;;;;16.45;62.94;101868.22;5110106;28;20039;-47
2022/07/15 07:34:10;;;;;;;22.33;3.60;;;;;;;16.35;61.54;101864.84;5098374;28;20047;-49
2022/07/15 07:36:36;;;;;;;16.05;3.50;;;;;;;16.34;61.06;101863.19;5108398;28;20075;-49
2022/07/15 07:39:03;;;;;;;15.38;3.28;;;;;;;16.50;62.41;101865.88;5105131;28;20089;-50
2022/07/15 07:41:30;;;;;;;13.13;3.30;;;;;;;16.63;62.31;101864.56;5108560;28;20527;-48
2022/07/15 07:43:57;;;;;;;18.42;3.70;;;;;;;16.75;64.65;101862.38;5098142;28;20068;-51
2022/07/15 07:46:25;;;;;;;14.57;3.95;;;;;;;16.65;59.16;101859.88;5110265;28;20044;-49
2022/07/15 07:48:52;;;;;;;16.05;4.40;;;;;;;16.67;60.95;101861.38;5103424;28;20051;-48
2022/07/15 07:51:27;;;;;;;17.95;4.47;;;;;;;16.78;61.13;101862.88;5101294;28;20401;-50
2022/07/15 07:53:54;;;;;;;17.42;3.78;;;;;;;16.95;62.29;101858.38;5110738;28;20064;-50
2022/07/15 07:56:20;;;;;;;13.20;4.20;;;;;;;17.13;58.40;101854.66;5098647;28;20035;-50
2022/07/15 07:58:47;;;;;;;17.40;3.83;;;;;;;17.23;58.84;101860.69;5106599;28;20121;-51
2022/07/15 08:01:15;;;;;;;13.88;3.20;;;;;;;17.32;56.49;101858.81;5104440;28;20083;-51
2022/07/15 08:03:42;;;;;;;13.90;2.88;;;;;;;17.33;56.87;101860.50;5098092;28;20051;-51
2022/07/15 08:06:09;;;;;;;15.48;2.85;;;;;;;17.11;56.87;101865.56;5110698;28;20100;-50
2022/07/15 08:08:38;;;;;;;11.40;2.47;;;;;;;17.30;56.85;101860.81;5100540;28;20054;-51
2022/07/15 08:11:05;;;;;;;16.20;3.55;;;;;;;17.32;58.06;101872.22;5103586;28;20486;-52
2022/07/15 08:13:32;;;;;;;16.33;3.50;;;;;;;17.07;56.58;101865.06;5107989;28;20036;-50
2022/07/15 08:15:58;;;;;;;15.05;3.42;;;;;;;17.20;59.40;101867.22;5110255;28;20497;-48
2022/07/15 08:18:29;;;;;;;12.40;3.10;;;;;;;17.35;56.72;101864.66;5098359;28;20044;-48
2022/07/15 08:20:56;;;;;;;13.73;3.72;;;;;;;17.36;57.81;101858.31;5105077;28;20079;-48
2022/07/15 08:23:22;;;;;;;16.42;3.30;;;;;;;17.44;56.84;101865.47;5106512;28;20043;-47
2022/07/15 08:25:51;;;;;;;20.08;4.22;;;;;;;17.55;56.74;101859.75;5096335;28;20056;-51
2022/07/15 08:28:18;;;;;;;13.90;4.90;;;;;;;17.48;56.03;101861.44;5085796;28;20375;-51
2022/07/15 08:30:46;;;;;;;18.48;5.38;;;;;;;17.41;54.58;101863.16;5094795;28;20550;-57
2022/07/15 08:33:13;;;;;;;13.35;5.05;;;;;;;17.38;54.92;101871.56;5095577;27;20482;-57
2022/07/15 08:35:41;;;;;;;13.82;4.25;;;;;;;17.59;54.11;101871.81;5090583;28;20059;-59
2022/07/15 08:38:10;;;;;;;18.60;3.38;;;;;;;17.65;53.09;101862.25;5097191;28;20047;-58
2022/07/15 08:40:38;;;;;;;12.75;3.53;;;;;;;17.58;52.53;101867.44;5086528;28;20435;-57
2022/07/15 08:43:07;;;;;;;13.75;3.30;;;;;;;17.74;54.22;101869.25;5104322;28;20071;-57
2022/07/15 08:45:37;;;;;;;12.98;2.88;;;;;;;17.86;54.38;101872.41;5098958;28;20054;-57
2022/07/15 08:48:05;;;;;;;12.70;2.50;;;;;;;17.87;52.65;101867.91;5091631;28;20044;-56
2022/07/15 08:50:34;;;;;;;9.82;2.60;;;;;;;18.12;53.80;101871.25;5081036;28;20097;-57
2022/07/15 08:53:01;;;;;;;12.05;2.40;;;;;;;18.31;52.28;101865.44;5085063;28;20102;-57
2022/07/15 08:55:28;;;;;;;10.30;2.20;;;;;;;18.54;51.59;101864.63;5077037;28;20048;-57
2022/07/15 08:57:55;;;;;;;10.10;2.10;;;;;;;18.57;51.45;101866.94;5078831;28;20051;-57
2022/07/15 09:00:28;;;;;;;13.93;2.17;;;;;;;18.76;50.16;101877.22;5093058;28;20051;-57
2022/07/15 09:03:00;;;;;;;13.10;2.30;;;;;;;18.65;49.47;101872.25;5083710;28;20087;-57
2022/07/15 09:05:33;;;;;;;14.05;2.30;;;;;;;18.81;50.83;101865.97;5092401;28;20135;-57
2022/07/15 09:08:06;;;;;;;14.30;2.05;;;;;;;18.75;48.81;101872.84;5093922;28;20051;-57
2022/07/15 09:10:53;;;;;;;19.17;2.22;;;;;;;18.63;49.60;101862.69;5093260;28;20052;-57
2022/07/15 09:13:39;;;;;;;8.27;2.00;;;;;;;18.69;50.21;101870.06;5093210;28;20082;-57
2022/07/15 09:16:13;;;;;;;16.33;1.95;;;;;;;18.52;50.90;101863.94;5093989;28;20481;-57
2022/07/15 09:18:42;;;;;;;15.43;2.35;;;;;;;18.58;51.72;101864.06;5093962;28;20113;-56
2022/07/15 09:21:20;;;;;;;15.98;2.25;;;;;;;18.63;51.56;101863.56;5093921;28;20497;-57
2022/07/15 09:23:48;;;;;;;21.00;5.47;;;;;;;18.95;48.55;101865.13;5093914;28;20489;-57
2022/07/15 09:26:36;;;;;;;9.90;2.10;;;;;;;19.03;47.80;101858.00;5093472;28;20040;-57
2022/07/15 09:33:34;;;;;;;8.00;1.80;;;;;;;19.14;46.95;101860.28;5093491;28;20047;-57
2022/07/15 09:35:02;;;;;;;7.57;2.08;;;;;;;18.79;47.42;101847.28;5093363;28;20044;-56
2022/07/15 09:37:29;;;;;;;8.60;1.83;;;;;;;18.82;47.92;101850.66;5093394;28;20398;-57
2022/07/15 09:39:57;;;;;;;9.57;1.98;;;;;;;18.75;47.42;101848.66;5081502;28;20094;-57
2022/07/15 09:42:24;;;;;;;11.55;1.88;;;;;;;18.99;47.49;101850.34;5086716;28;20441;-57
2022/07/15 09:44:51;;;;;;;11.35;1.70;;;;;;;19.16;47.16;101866.31;5073796;28;20511;-60
2022/07/15 09:47:19;;;;;;;10.25;1.70;;;;;;;19.42;43.99;101867.72;5072799;28;20044;-57
2022/07/15 09:49:47;;;;;;;12.00;1.55;;;;;;;19.49;43.53;101866.78;5075722;28;20066;-56
2022/07/15 09:52:15;;;;;;;5.22;1.48;;;;;;;19.77;44.78;101866.13;5089484;28;20071;-57
2022/07/15 09:54:46;;;;;;;9.30;2.00;;;;;;;19.94;43.48;101869.47;5082570;28;20036;-56
2022/07/15 09:57:16;;;;;;;9.27;2.00;;;;;;;19.91;42.91;101873.34;5073578;28;20048;-55
2022/07/15 09:59:43;;;;;;;6.80;1.85;;;;;;;20.33;43.19;101858.28;5086178;28;20779;-56
2022/07/15 10:02:11;;;;;;;6.57;1.77;;;;;;;20.45;42.47;101845.16;5083649;28;20053;-56
2022/07/15 10:04:39;;;;;;;12.60;2.00;;;;;;;20.46;43.15;101854.88;5087260;28;20094;-56
2022/07/15 10:07:06;;;;;;;10.23;2.00;;;;;;;20.39;43.14;101850.47;5093282;28;20066;-56
2022/07/15 10:09:53;;;;;;;13.35;2.05;;;;;;;20.95;42.04;101860.53;5078309;28;20041;-56
2022/07/15 10:12:25;;;;;;;9.52;1.80;;;;;;;20.69;44.13;101853.88;5078585;28;20076;-56
2022/07/15 10:15:31;;;;;;;11.93;2.03;;;;;;;20.48;43.65;101858.25;5089967;28;20470;-56
2022/07/15 10:18:15;;;;;;;10.57;1.98;;;;;;;20.42;42.19;101853.59;5089848;28;20453;-55
2022/07/15 10:23:46;;;;;;;6.68;1.80;;;;;;;20.38;41.65;101846.94;5107737;27;20943;-55
2022/07/15 10:26:47;;;;;;;8.55;1.70;;;;;;;20.31;43.08;101844.16;5105225;28;20040;-55
2022/07/15 10:29:15;;;;;;;10.30;2.53;;;;;;;20.44;42.43;101843.47;5108794;28;20039;-55
2022/07/15 10:31:44;;;;;;;8.63;1.83;;;;;;;20.52;42.75;101846.03;5107248;28;20035;-55
2022/07/15 10:39:52;;;;;;;8.75;1.85;;;;;;;20.52;41.77;101837.13;5129023;27;20373;-55
2022/07/15 10:42:21;;;;;;;9.98;3.03;;;;;;;20.29;40.74;101840.84;5077909;28;20078;-55
2022/07/15 10:45:05;;;;;;;6.57;1.90;;;;;;;20.32;42.60;101850.41;5103809;28;20100;-55
2022/07/15 10:47:33;;;;;;;9.45;1.65;;;;;;;20.26;42.00;101838.50;5130002;28;20084;-53
2022/07/15 10:50:00;;;;;;;10.73;2.08;;;;;;;20.18;42.59;101843.22;5129856;28;20112;-55
2022/07/15 10:52:31;;;;;;;16.67;4.28;;;;;;;20.26;43.64;101837.69;5131067;28;20050;-55
2022/07/15 10:55:03;;;;;;;12.98;2.30;;;;;;;20.35;42.49;101839.22;5116811;28;20035;-56
2022/07/15 10:57:52;;;;;;;14.32;2.17;;;;;;;20.55;42.29;101836.72;5116786;28;20074;-54
2022/07/15 11:03:13;;;;;;;8.40;2.50;;;;;;;20.61;42.34;101835.13;5109664;27;20400;-55
2022/07/15 11:06:00;;;;;;;;;;;;;;;20.98;42.43;101825.91;5093492;28;20041;-54
2022/07/15 11:13:57;;;;;;;11.52;2.13;;;;;;;21.49;40.91;101816.69;5089963;27;20371;-55
2022/07/15 11:16:24;;;;;;;9.35;1.67;;;;;;;21.48;40.04;101815.00;5077390;28;20032;-52
2022/07/15 11:18:53;;;;;;;9.20;2.00;;;;;;;21.61;41.18;101808.84;5085386;28;20040;-56
2022/07/15 11:21:21;;;;;;;9.23;1.80;;;;;;;21.85;39.78;101807.47;5087622;28;20048;-56
2022/07/15 11:23:50;;;;;;;10.93;2.00;;;;;;;22.06;39.45;101801.06;5080108;28;20068;-56
2022/07/15 11:26:18;;;;;;;13.60;2.13;;;;;;;21.91;39.01;101805.84;5083216;28;20456;-56
2022/07/15 11:28:50;;;;;;;6.78;1.67;;;;;;;22.03;39.30;101799.63;5087542;28;20425;-56
2022/07/15 11:31:18;;;;;;;9.65;1.85;;;;;;;21.98;39.09;101795.88;5076521;28;20047;-56
2022/07/15 11:33:44;;;;;;;8.95;1.83;;;;;;;21.88;39.70;101795.44;5081724;28;20053;-56
2022/07/15 11:36:18;;;;;;;10.13;1.85;;;;;;;21.93;39.78;101801.06;5083215;28;20116;-56
2022/07/15 11:38:45;;;;;;;13.50;2.08;;;;;;;22.26;39.98;101795.75;5084002;28;20139;-55
2022/07/15 11:44:34;;;;;;;9.98;1.80;;;;;;;21.90;39.77;101785.25;5069343;28;20132;-55
2022/07/15 11:46:51;;;;;;;7.45;1.80;;;;;;;21.89;40.15;101789.81;5079751;28;20053;-54
2022/07/15 11:49:38;;;;;;;9.30;1.80;;;;;;;21.60;38.77;101789.09;5069974;28;20116;-56
2022/07/15 11:52:06;;;;;;;9.80;1.77;;;;;;;21.96;38.96;101774.47;5084349;28;20040;-55
2022/07/15 11:54:37;;;;;;;12.38;2.17;;;;;;;22.26;38.79;101778.66;5083491;28;20036;-56